sensor_id;sensor_type;location;lat;lon;timestamp;P1;durP1;ratioP1;P2;durP2;ratioP2
19026;SDS011;9646;52.034;5.554;2024-02-21T00:01:14;8.98;;;3.80;;
19026;SDS011;9646;52.034;5.554;2024-02-21T00:03:42;13.50;;;4.72;;
19026;SDS011;9646;52.034;5.554;2024-02-21T00:06:09;8.93;;;4.18;;
19026;SDS011;9646;52.034;5.554;2024-02-21T00:08:36;10.65;;;4.10;;
19026;SDS011;9646;52.034;5.554;2024-02-21T00:11:05;11.70;;;4.45;;
19026;SDS011;9646;52.034;5.554;2024-02-21T00:13:32;9.48;;;3.47;;
19026;SDS011;9646;52.034;5.554;2024-02-21T00:16:00;8.18;;;3.75;;
19026;SDS011;9646;52.034;5.554;2024-02-21T00:18:28;10.98;;;4.60;;
19026;SDS011;9646;52.034;5.554;2024-02-21T00:20:55;9.48;;;4.15;;
19026;SDS011;9646;52.034;5.554;2024-02-21T00:23:22;10.30;;;3.67;;
19026;SDS011;9646;52.034;5.554;2024-02-21T00:25:49;9.32;;;3.88;;
19026;SDS011;9646;52.034;5.554;2024-02-21T00:28:18;8.23;;;3.80;;
19026;SDS011;9646;52.034;5.554;2024-02-21T00:30:46;8.10;;;3.28;;
19026;SDS011;9646;52.034;5.554;2024-02-21T00:33:15;6.88;;;3.72;;
19026;SDS011;9646;52.034;5.554;2024-02-21T00:35:42;10.23;;;3.53;;
19026;SDS011;9646;52.034;5.554;2024-02-21T00:38:09;12.27;;;3.83;;
19026;SDS011;9646;52.034;5.554;2024-02-21T00:40:37;8.65;;;3.72;;
19026;SDS011;9646;52.034;5.554;2024-02-21T00:43:04;11.52;;;4.13;;
19026;SDS011;9646;52.034;5.554;2024-02-21T00:45:32;10.23;;;4.30;;
19026;SDS011;9646;52.034;5.554;2024-02-21T00:48:00;7.32;;;3.75;;
19026;SDS011;9646;52.034;5.554;2024-02-21T00:50:33;8.95;;;3.92;;
19026;SDS011;9646;52.034;5.554;2024-02-21T00:53:02;8.82;;;3.58;;
19026;SDS011;9646;52.034;5.554;2024-02-21T00:55:29;6.70;;;3.28;;
19026;SDS011;9646;52.034;5.554;2024-02-21T00:57:56;11.10;;;3.90;;
19026;SDS011;9646;52.034;5.554;2024-02-21T01:00:24;7.65;;;3.63;;
19026;SDS011;9646;52.034;5.554;2024-02-21T01:02:52;9.68;;;4.13;;
19026;SDS011;9646;52.034;5.554;2024-02-21T01:05:19;9.35;;;4.10;;
19026;SDS011;9646;52.034;5.554;2024-02-21T01:07:47;7.07;;;3.63;;
19026;SDS011;9646;52.034;5.554;2024-02-21T01:10:14;7.82;;;3.40;;
19026;SDS011;9646;52.034;5.554;2024-02-21T01:12:42;9.82;;;4.15;;
19026;SDS011;9646;52.034;5.554;2024-02-21T01:15:09;9.00;;;3.83;;
19026;SDS011;9646;52.034;5.554;2024-02-21T01:17:36;8.50;;;4.10;;
19026;SDS011;9646;52.034;5.554;2024-02-21T01:20:07;12.00;;;4.53;;
19026;SDS011;9646;52.034;5.554;2024-02-21T01:22:34;13.98;;;4.07;;
19026;SDS011;9646;52.034;5.554;2024-02-21T01:25:02;9.20;;;4.10;;
19026;SDS011;9646;52.034;5.554;2024-02-21T01:27:29;10.50;;;3.90;;
19026;SDS011;9646;52.034;5.554;2024-02-21T01:29:56;8.30;;;3.78;;
19026;SDS011;9646;52.034;5.554;2024-02-21T01:32:23;10.50;;;4.03;;
19026;SDS011;9646;52.034;5.554;2024-02-21T01:34:51;8.00;;;3.92;;
19026;SDS011;9646;52.034;5.554;2024-02-21T01:37:20;7.57;;;3.53;;
19026;SDS011;9646;52.034;5.554;2024-02-21T01:39:47;8.93;;;4.07;;
19026;SDS011;9646;52.034;5.554;2024-02-21T01:42:15;7.72;;;3.20;;
19026;SDS011;9646;52.034;5.554;2024-02-21T01:44:42;7.55;;;3.65;;
19026;SDS011;9646;52.034;5.554;2024-02-21T01:47:10;8.38;;;3.78;;
19026;SDS011;9646;52.034;5.554;2024-02-21T01:49:38;7.03;;;3.38;;
19026;SDS011;9646;52.034;5.554;2024-02-21T01:52:06;6.28;;;2.55;;
19026;SDS011;9646;52.034;5.554;2024-02-21T01:54:35;12.15;;;3.60;;
19026;SDS011;9646;52.034;5.554;2024-02-21T01:57:02;9.27;;;3.53;;
19026;SDS011;9646;52.034;5.554;2024-02-21T01:59:30;7.53;;;3.30;;
19026;SDS011;9646;52.034;5.554;2024-02-21T02:01:58;10.27;;;3.83;;
19026;SDS011;9646;52.034;5.554;2024-02-21T02:04:25;6.93;;;3.05;;
19026;SDS011;9646;52.034;5.554;2024-02-21T02:06:52;11.68;;;3.72;;
19026;SDS011;9646;52.034;5.554;2024-02-21T02:09:21;8.63;;;3.30;;
19026;SDS011;9646;52.034;5.554;2024-02-21T02:11:50;6.90;;;4.10;;
19026;SDS011;9646;52.034;5.554;2024-02-21T02:14:17;8.60;;;3.58;;
19026;SDS011;9646;52.034;5.554;2024-02-21T02:16:46;6.55;;;3.15;;
19026;SDS011;9646;52.034;5.554;2024-02-21T02:19:13;8.20;;;3.60;;
19026;SDS011;9646;52.034;5.554;2024-02-21T02:21:42;13.32;;;4.57;;
19026;SDS011;9646;52.034;5.554;2024-02-21T02:24:12;10.93;;;3.88;;
19026;SDS011;9646;52.034;5.554;2024-02-21T02:26:40;10.27;;;4.32;;
19026;SDS011;9646;52.034;5.554;2024-02-21T02:29:07;12.75;;;4.47;;
19026;SDS011;9646;52.034;5.554;2024-02-21T02:31:34;8.18;;;3.78;;
19026;SDS011;9646;52.034;5.554;2024-02-21T02:34:02;8.88;;;3.80;;
19026;SDS011;9646;52.034;5.554;2024-02-21T02:36:30;9.82;;;3.55;;
19026;SDS011;9646;52.034;5.554;2024-02-21T02:38:57;8.48;;;3.58;;
19026;SDS011;9646;52.034;5.554;2024-02-21T02:41:25;10.00;;;3.78;;
19026;SDS011;9646;52.034;5.554;2024-02-21T02:43:53;7.50;;;4.07;;
19026;SDS011;9646;52.034;5.554;2024-02-21T02:46:20;11.27;;;4.20;;
19026;SDS011;9646;52.034;5.554;2024-02-21T02:48:47;11.63;;;3.78;;
19026;SDS011;9646;52.034;5.554;2024-02-21T02:51:14;10.88;;;4.05;;
19026;SDS011;9646;52.034;5.554;2024-02-21T02:53:42;8.55;;;3.35;;
19026;SDS011;9646;52.034;5.554;2024-02-21T02:56:13;10.82;;;3.90;;
19026;SDS011;9646;52.034;5.554;2024-02-21T02:58:42;9.68;;;3.83;;
19026;SDS011;9646;52.034;5.554;2024-02-21T03:01:09;8.95;;;4.55;;
19026;SDS011;9646;52.034;5.554;2024-02-21T03:03:36;8.43;;;3.08;;
19026;SDS011;9646;52.034;5.554;2024-02-21T03:06:04;10.38;;;3.60;;
19026;SDS011;9646;52.034;5.554;2024-02-21T03:08:32;7.32;;;3.30;;
19026;SDS011;9646;52.034;5.554;2024-02-21T03:10:59;10.68;;;4.10;;
19026;SDS011;9646;52.034;5.554;2024-02-21T03:13:26;11.82;;;4.13;;
19026;SDS011;9646;52.034;5.554;2024-02-21T03:15:55;11.02;;;3.90;;
19026;SDS011;9646;52.034;5.554;2024-02-21T03:18:28;11.38;;;4.13;;
19026;SDS011;9646;52.034;5.554;2024-02-21T03:20:55;11.00;;;4.10;;
19026;SDS011;9646;52.034;5.554;2024-02-21T03:23:23;9.98;;;3.70;;
19026;SDS011;9646;52.034;5.554;2024-02-21T03:25:50;10.88;;;4.05;;
19026;SDS011;9646;52.034;5.554;2024-02-21T03:28:17;10.25;;;3.97;;
19026;SDS011;9646;52.034;5.554;2024-02-21T03:30:44;9.00;;;4.47;;
19026;SDS011;9646;52.034;5.554;2024-02-21T03:33:13;8.60;;;3.75;;
19026;SDS011;9646;52.034;5.554;2024-02-21T03:35:40;11.35;;;4.15;;
19026;SDS011;9646;52.034;5.554;2024-02-21T03:38:07;9.02;;;3.72;;
19026;SDS011;9646;52.034;5.554;2024-02-21T03:40:34;11.95;;;4.22;;
19026;SDS011;9646;52.034;5.554;2024-02-21T03:43:02;8.70;;;3.90;;
19026;SDS011;9646;52.034;5.554;2024-02-21T03:45:29;13.02;;;4.30;;
19026;SDS011;9646;52.034;5.554;2024-02-21T03:47:56;10.45;;;3.88;;
19026;SDS011;9646;52.034;5.554;2024-02-21T03:50:26;7.70;;;3.65;;
19026;SDS011;9646;52.034;5.554;2024-02-21T03:52:53;8.73;;;4.28;;
19026;SDS011;9646;52.034;5.554;2024-02-21T03:55:20;8.45;;;4.20;;
19026;SDS011;9646;52.034;5.554;2024-02-21T03:57:48;10.88;;;4.13;;
19026;SDS011;9646;52.034;5.554;2024-02-21T04:00:15;9.80;;;3.95;;
19026;SDS011;9646;52.034;5.554;2024-02-21T04:02:43;10.32;;;4.25;;
19026;SDS011;9646;52.034;5.554;2024-02-21T04:05:10;9.95;;;3.75;;
19026;SDS011;9646;52.034;5.554;2024-02-21T04:07:38;8.93;;;3.53;;
19026;SDS011;9646;52.034;5.554;2024-02-21T04:10:06;6.63;;;3.17;;
19026;SDS011;9646;52.034;5.554;2024-02-21T04:12:33;9.77;;;4.00;;
19026;SDS011;9646;52.034;5.554;2024-02-21T04:15:00;8.32;;;3.60;;
19026;SDS011;9646;52.034;5.554;2024-02-21T04:17:27;7.22;;;3.20;;
19026;SDS011;9646;52.034;5.554;2024-02-21T04:20:01;10.23;;;3.70;;
19026;SDS011;9646;52.034;5.554;2024-02-21T04:22:30;8.25;;;4.03;;
19026;SDS011;9646;52.034;5.554;2024-02-21T04:25:00;9.43;;;3.70;;
19026;SDS011;9646;52.034;5.554;2024-02-21T04:27:27;9.18;;;4.57;;
19026;SDS011;9646;52.034;5.554;2024-02-21T04:29:54;6.15;;;3.88;;
19026;SDS011;9646;52.034;5.554;2024-02-21T04:32:22;8.05;;;3.65;;
19026;SDS011;9646;52.034;5.554;2024-02-21T04:34:49;10.27;;;4.00;;
19026;SDS011;9646;52.034;5.554;2024-02-21T04:37:17;9.05;;;4.63;;
19026;SDS011;9646;52.034;5.554;2024-02-21T04:39:45;8.80;;;4.25;;
19026;SDS011;9646;52.034;5.554;2024-02-21T04:42:13;11.43;;;4.13;;
19026;SDS011;9646;52.034;5.554;2024-02-21T04:44:40;11.70;;;4.28;;
19026;SDS011;9646;52.034;5.554;2024-02-21T04:47:07;9.40;;;3.90;;
19026;SDS011;9646;52.034;5.554;2024-02-21T04:49:35;9.57;;;4.82;;
19026;SDS011;9646;52.034;5.554;2024-02-21T04:52:02;8.73;;;4.00;;
19026;SDS011;9646;52.034;5.554;2024-02-21T04:54:29;9.43;;;4.50;;
19026;SDS011;9646;52.034;5.554;2024-02-21T04:56:56;10.77;;;4.35;;
19026;SDS011;9646;52.034;5.554;2024-02-21T04:59:25;10.93;;;4.15;;
19026;SDS011;9646;52.034;5.554;2024-02-21T05:01:52;8.10;;;4.10;;
19026;SDS011;9646;52.034;5.554;2024-02-21T05:04:19;9.15;;;3.95;;
19026;SDS011;9646;52.034;5.554;2024-02-21T05:06:46;7.65;;;4.72;;
19026;SDS011;9646;52.034;5.554;2024-02-21T05:09:14;9.93;;;5.15;;
19026;SDS011;9646;52.034;5.554;2024-02-21T05:11:41;13.40;;;5.00;;
19026;SDS011;9646;52.034;5.554;2024-02-21T05:14:08;6.85;;;4.55;;
19026;SDS011;9646;52.034;5.554;2024-02-21T05:16:36;5.28;;;3.35;;
19026;SDS011;9646;52.034;5.554;2024-02-21T05:19:05;7.80;;;4.10;;
19026;SDS011;9646;52.034;5.554;2024-02-21T05:21:33;7.10;;;4.15;;
19026;SDS011;9646;52.034;5.554;2024-02-21T05:24:00;5.43;;;3.65;;
19026;SDS011;9646;52.034;5.554;2024-02-21T05:26:27;10.38;;;4.50;;
19026;SDS011;9646;52.034;5.554;2024-02-21T05:28:57;9.90;;;5.22;;
19026;SDS011;9646;52.034;5.554;2024-02-21T05:31:25;7.95;;;4.13;;
19026;SDS011;9646;52.034;5.554;2024-02-21T05:33:54;14.05;;;5.25;;
19026;SDS011;9646;52.034;5.554;2024-02-21T05:36:22;12.93;;;4.65;;
19026;SDS011;9646;52.034;5.554;2024-02-21T05:38:49;11.63;;;5.28;;
19026;SDS011;9646;52.034;5.554;2024-02-21T05:41:16;10.00;;;5.25;;
19026;SDS011;9646;52.034;5.554;2024-02-21T05:43:44;13.35;;;6.18;;
19026;SDS011;9646;52.034;5.554;2024-02-21T05:46:11;12.27;;;4.95;;
19026;SDS011;9646;52.034;5.554;2024-02-21T05:48:38;10.40;;;6.18;;
19026;SDS011;9646;52.034;5.554;2024-02-21T05:51:06;11.95;;;5.93;;
19026;SDS011;9646;52.034;5.554;2024-02-21T05:53:34;12.85;;;6.18;;
19026;SDS011;9646;52.034;5.554;2024-02-21T05:56:06;13.90;;;6.55;;
19026;SDS011;9646;52.034;5.554;2024-02-21T05:58:37;11.80;;;6.03;;
19026;SDS011;9646;52.034;5.554;2024-02-21T06:01:04;11.23;;;6.18;;
19026;SDS011;9646;52.034;5.554;2024-02-21T06:03:31;11.32;;;6.03;;
19026;SDS011;9646;52.034;5.554;2024-02-21T06:05:59;11.00;;;6.45;;
19026;SDS011;9646;52.034;5.554;2024-02-21T06:08:27;17.55;;;7.97;;
19026;SDS011;9646;52.034;5.554;2024-02-21T06:10:54;14.93;;;6.47;;
19026;SDS011;9646;52.034;5.554;2024-02-21T06:13:23;13.13;;;6.00;;
19026;SDS011;9646;52.034;5.554;2024-02-21T06:15:50;16.70;;;7.22;;
19026;SDS011;9646;52.034;5.554;2024-02-21T06:18:17;15.75;;;7.55;;
19026;SDS011;9646;52.034;5.554;2024-02-21T06:20:45;14.50;;;7.72;;
19026;SDS011;9646;52.034;5.554;2024-02-21T06:23:15;15.65;;;7.95;;
19026;SDS011;9646;52.034;5.554;2024-02-21T06:25:45;14.25;;;7.53;;
19026;SDS011;9646;52.034;5.554;2024-02-21T06:28:12;16.65;;;9.13;;
19026;SDS011;9646;52.034;5.554;2024-02-21T06:30:40;17.73;;;9.27;;
19026;SDS011;9646;52.034;5.554;2024-02-21T06:33:07;17.63;;;8.57;;
19026;SDS011;9646;52.034;5.554;2024-02-21T06:35:34;14.48;;;8.18;;
19026;SDS011;9646;52.034;5.554;2024-02-21T06:38:07;16.80;;;8.73;;
19026;SDS011;9646;52.034;5.554;2024-02-21T06:40:34;12.13;;;6.75;;
19026;SDS011;9646;52.034;5.554;2024-02-21T06:43:06;16.30;;;8.90;;
19026;SDS011;9646;52.034;5.554;2024-02-21T06:45:34;15.18;;;8.32;;
19026;SDS011;9646;52.034;5.554;2024-02-21T06:48:01;12.77;;;6.85;;
19026;SDS011;9646;52.034;5.554;2024-02-21T06:50:28;20.13;;;8.88;;
19026;SDS011;9646;52.034;5.554;2024-02-21T06:52:56;15.32;;;8.55;;
19026;SDS011;9646;52.034;5.554;2024-02-21T06:55:23;17.23;;;7.90;;
19026;SDS011;9646;52.034;5.554;2024-02-21T06:57:50;19.95;;;8.85;;
19026;SDS011;9646;52.034;5.554;2024-02-21T07:00:19;16.50;;;8.90;;
19026;SDS011;9646;52.034;5.554;2024-02-21T07:02:47;21.20;;;7.32;;
19026;SDS011;9646;52.034;5.554;2024-02-21T07:05:15;15.75;;;7.63;;
19026;SDS011;9646;52.034;5.554;2024-02-21T07:07:42;12.52;;;7.03;;
19026;SDS011;9646;52.034;5.554;2024-02-21T07:10:09;13.55;;;7.00;;
19026;SDS011;9646;52.034;5.554;2024-02-21T07:12:37;17.33;;;8.25;;
19026;SDS011;9646;52.034;5.554;2024-02-21T07:15:07;14.32;;;6.97;;
19026;SDS011;9646;52.034;5.554;2024-02-21T07:17:36;13.13;;;6.50;;
19026;SDS011;9646;52.034;5.554;2024-02-21T07:20:03;11.45;;;6.05;;
19026;SDS011;9646;52.034;5.554;2024-02-21T07:22:30;12.32;;;7.53;;
19026;SDS011;9646;52.034;5.554;2024-02-21T07:24:57;13.30;;;7.10;;
19026;SDS011;9646;52.034;5.554;2024-02-21T07:27:25;12.90;;;6.30;;
19026;SDS011;9646;52.034;5.554;2024-02-21T07:29:56;12.05;;;6.32;;
19026;SDS011;9646;52.034;5.554;2024-02-21T07:32:23;13.32;;;7.18;;
19026;SDS011;9646;52.034;5.554;2024-02-21T07:34:51;17.45;;;7.38;;
19026;SDS011;9646;52.034;5.554;2024-02-21T07:37:18;11.15;;;6.30;;
19026;SDS011;9646;52.034;5.554;2024-02-21T07:39:46;8.88;;;5.60;;
19026;SDS011;9646;52.034;5.554;2024-02-21T07:42:13;18.50;;;7.00;;
19026;SDS011;9646;52.034;5.554;2024-02-21T07:44:40;14.50;;;6.93;;
19026;SDS011;9646;52.034;5.554;2024-02-21T07:47:07;16.55;;;6.28;;
19026;SDS011;9646;52.034;5.554;2024-02-21T07:49:40;11.52;;;7.03;;
19026;SDS011;9646;52.034;5.554;2024-02-21T07:52:09;14.27;;;7.38;;
19026;SDS011;9646;52.034;5.554;2024-02-21T07:54:36;13.90;;;7.07;;
19026;SDS011;9646;52.034;5.554;2024-02-21T07:57:03;11.48;;;5.82;;
19026;SDS011;9646;52.034;5.554;2024-02-21T07:59:31;11.32;;;4.88;;
19026;SDS011;9646;52.034;5.554;2024-02-21T08:01:58;13.02;;;6.70;;
19026;SDS011;9646;52.034;5.554;2024-02-21T08:04:25;17.00;;;6.93;;
19026;SDS011;9646;52.034;5.554;2024-02-21T08:06:52;15.15;;;7.53;;
19026;SDS011;9646;52.034;5.554;2024-02-21T08:09:22;14.50;;;6.60;;
19026;SDS011;9646;52.034;5.554;2024-02-21T08:11:49;9.93;;;6.28;;
19026;SDS011;9646;52.034;5.554;2024-02-21T08:14:17;16.05;;;7.72;;
19026;SDS011;9646;52.034;5.554;2024-02-21T08:16:44;17.08;;;7.10;;
19026;SDS011;9646;52.034;5.554;2024-02-21T08:19:11;13.35;;;6.85;;
19026;SDS011;9646;52.034;5.554;2024-02-21T08:21:38;15.32;;;7.70;;
19026;SDS011;9646;52.034;5.554;2024-02-21T08:24:05;15.45;;;7.20;;
19026;SDS011;9646;52.034;5.554;2024-02-21T08:26:34;20.00;;;7.40;;
19026;SDS011;9646;52.034;5.554;2024-02-21T08:29:01;10.73;;;5.88;;
19026;SDS011;9646;52.034;5.554;2024-02-21T08:31:28;15.48;;;6.68;;
19026;SDS011;9646;52.034;5.554;2024-02-21T08:33:57;12.77;;;6.60;;
19026;SDS011;9646;52.034;5.554;2024-02-21T08:36:28;13.75;;;7.00;;
19026;SDS011;9646;52.034;5.554;2024-02-21T08:38:55;13.27;;;7.18;;
19026;SDS011;9646;52.034;5.554;2024-02-21T08:41:23;13.93;;;6.95;;
19026;SDS011;9646;52.034;5.554;2024-02-21T08:43:52;18.85;;;7.93;;
19026;SDS011;9646;52.034;5.554;2024-02-21T08:46:19;12.88;;;7.45;;
19026;SDS011;9646;52.034;5.554;2024-02-21T08:48:47;15.10;;;7.13;;
19026;SDS011;9646;52.034;5.554;2024-02-21T08:51:14;11.20;;;7.05;;
19026;SDS011;9646;52.034;5.554;2024-02-21T08:53:41;11.38;;;6.28;;
19026;SDS011;9646;52.034;5.554;2024-02-21T08:56:08;13.18;;;7.03;;
19026;SDS011;9646;52.034;5.554;2024-02-21T08:58:35;17.63;;;7.85;;
19026;SDS011;9646;52.034;5.554;2024-02-21T09:01:04;13.40;;;5.82;;
19026;SDS011;9646;52.034;5.554;2024-02-21T09:03:35;14.02;;;7.07;;
19026;SDS011;9646;52.034;5.554;2024-02-21T09:06:03;15.65;;;6.85;;
19026;SDS011;9646;52.034;5.554;2024-02-21T09:08:30;12.73;;;6.43;;
19026;SDS011;9646;52.034;5.554;2024-02-21T09:10:58;12.65;;;7.30;;
19026;SDS011;9646;52.034;5.554;2024-02-21T09:13:25;12.75;;;7.13;;
19026;SDS011;9646;52.034;5.554;2024-02-21T09:15:52;14.65;;;7.18;;
19026;SDS011;9646;52.034;5.554;2024-02-21T09:18:22;14.70;;;7.05;;
19026;SDS011;9646;52.034;5.554;2024-02-21T09:20:49;14.35;;;7.25;;
19026;SDS011;9646;52.034;5.554;2024-02-21T09:23:17;10.85;;;6.70;;
19026;SDS011;9646;52.034;5.554;2024-02-21T09:25:45;16.73;;;7.55;;
19026;SDS011;9646;52.034;5.554;2024-02-21T09:28:12;11.40;;;6.43;;
19026;SDS011;9646;52.034;5.554;2024-02-21T09:30:39;15.63;;;7.68;;
19026;SDS011;9646;52.034;5.554;2024-02-21T09:33:06;16.67;;;5.55;;
19026;SDS011;9646;52.034;5.554;2024-02-21T09:35:35;12.88;;;6.57;;
19026;SDS011;9646;52.034;5.554;2024-02-21T09:38:02;11.00;;;6.75;;
19026;SDS011;9646;52.034;5.554;2024-02-21T09:40:29;11.27;;;6.70;;
19026;SDS011;9646;52.034;5.554;2024-02-21T09:42:59;11.45;;;6.65;;
19026;SDS011;9646;52.034;5.554;2024-02-21T09:45:29;12.55;;;6.72;;
19026;SDS011;9646;52.034;5.554;2024-02-21T09:50:43;9.63;;;5.47;;
19026;SDS011;9646;52.034;5.554;2024-02-21T09:53:12;11.63;;;6.57;;
19026;SDS011;9646;52.034;5.554;2024-02-21T09:55:40;12.70;;;5.88;;
19026;SDS011;9646;52.034;5.554;2024-02-21T09:58:08;11.05;;;5.90;;
19026;SDS011;9646;52.034;5.554;2024-02-21T10:00:35;7.18;;;5.32;;
19026;SDS011;9646;52.034;5.554;2024-02-21T10:03:03;9.20;;;6.43;;
19026;SDS011;9646;52.034;5.554;2024-02-21T10:05:35;10.00;;;5.60;;
19026;SDS011;9646;52.034;5.554;2024-02-21T10:08:04;7.60;;;4.93;;
19026;SDS011;9646;52.034;5.554;2024-02-21T10:10:40;8.50;;;5.50;;
19026;SDS011;9646;52.034;5.554;2024-02-21T10:13:07;7.90;;;4.53;;
19026;SDS011;9646;52.034;5.554;2024-02-21T10:15:34;8.43;;;4.78;;
19026;SDS011;9646;52.034;5.554;2024-02-21T10:18:01;9.27;;;5.35;;
19026;SDS011;9646;52.034;5.554;2024-02-21T10:20:29;8.15;;;4.88;;
19026;SDS011;9646;52.034;5.554;2024-02-21T10:23:04;8.05;;;4.65;;
19026;SDS011;9646;52.034;5.554;2024-02-21T10:25:34;8.05;;;4.53;;
19026;SDS011;9646;52.034;5.554;2024-02-21T10:28:03;6.60;;;4.88;;
19026;SDS011;9646;52.034;5.554;2024-02-21T10:30:30;9.07;;;4.90;;
19026;SDS011;9646;52.034;5.554;2024-02-21T10:32:57;7.38;;;4.07;;
19026;SDS011;9646;52.034;5.554;2024-02-21T10:35:25;7.72;;;4.70;;
19026;SDS011;9646;52.034;5.554;2024-02-21T10:37:53;6.82;;;4.30;;
19026;SDS011;9646;52.034;5.554;2024-02-21T10:40:23;8.20;;;5.07;;
19026;SDS011;9646;52.034;5.554;2024-02-21T10:42:51;5.50;;;3.92;;
19026;SDS011;9646;52.034;5.554;2024-02-21T10:45:21;7.55;;;4.38;;
19026;SDS011;9646;52.034;5.554;2024-02-21T10:47:50;5.90;;;3.85;;
19026;SDS011;9646;52.034;5.554;2024-02-21T10:50:20;6.57;;;4.15;;
19026;SDS011;9646;52.034;5.554;2024-02-21T10:52:51;5.93;;;4.68;;
19026;SDS011;9646;52.034;5.554;2024-02-21T10:55:26;7.32;;;4.45;;
19026;SDS011;9646;52.034;5.554;2024-02-21T10:57:55;9.93;;;4.93;;
19026;SDS011;9646;52.034;5.554;2024-02-21T11:00:23;6.38;;;4.50;;
19026;SDS011;9646;52.034;5.554;2024-02-21T11:02:55;7.47;;;4.05;;
19026;SDS011;9646;52.034;5.554;2024-02-21T11:05:23;7.45;;;3.78;;
19026;SDS011;9646;52.034;5.554;2024-02-21T11:07:50;9.75;;;4.57;;
19026;SDS011;9646;52.034;5.554;2024-02-21T11:10:22;10.60;;;4.80;;
19026;SDS011;9646;52.034;5.554;2024-02-21T11:12:53;8.35;;;5.05;;
19026;SDS011;9646;52.034;5.554;2024-02-21T11:15:24;6.82;;;4.55;;
19026;SDS011;9646;52.034;5.554;2024-02-21T11:17:55;8.07;;;4.90;;
19026;SDS011;9646;52.034;5.554;2024-02-21T11:20:31;6.10;;;5.03;;
19026;SDS011;9646;52.034;5.554;2024-02-21T11:22:59;9.43;;;4.82;;
19026;SDS011;9646;52.034;5.554;2024-02-21T11:25:26;8.25;;;5.70;;
19026;SDS011;9646;52.034;5.554;2024-02-21T11:28:00;7.70;;;4.95;;
19026;SDS011;9646;52.034;5.554;2024-02-21T11:30:27;7.30;;;5.05;;
19026;SDS011;9646;52.034;5.554;2024-02-21T11:33:02;11.02;;;5.57;;
19026;SDS011;9646;52.034;5.554;2024-02-21T11:35:33;7.47;;;4.95;;
19026;SDS011;9646;52.034;5.554;2024-02-21T11:38:10;8.10;;;5.35;;
19026;SDS011;9646;52.034;5.554;2024-02-21T11:40:40;12.75;;;5.28;;
19026;SDS011;9646;52.034;5.554;2024-02-21T11:43:08;8.15;;;5.45;;
19026;SDS011;9646;52.034;5.554;2024-02-21T11:45:36;9.07;;;4.95;;
19026;SDS011;9646;52.034;5.554;2024-02-21T11:48:05;7.72;;;4.90;;
19026;SDS011;9646;52.034;5.554;2024-02-21T11:50:33;7.55;;;5.03;;
19026;SDS011;9646;52.034;5.554;2024-02-21T11:53:01;9.10;;;5.28;;
19026;SDS011;9646;52.034;5.554;2024-02-21T11:55:28;10.68;;;5.68;;
19026;SDS011;9646;52.034;5.554;2024-02-21T11:57:56;7.22;;;4.57;;
19026;SDS011;9646;52.034;5.554;2024-02-21T12:00:25;6.53;;;4.22;;
19026;SDS011;9646;52.034;5.554;2024-02-21T12:02:52;7.45;;;4.85;;
19026;SDS011;9646;52.034;5.554;2024-02-21T12:05:20;8.18;;;5.22;;
19026;SDS011;9646;52.034;5.554;2024-02-21T12:07:47;10.10;;;5.05;;
19026;SDS011;9646;52.034;5.554;2024-02-21T12:10:14;10.43;;;5.13;;
19026;SDS011;9646;52.034;5.554;2024-02-21T12:12:42;9.57;;;4.60;;
19026;SDS011;9646;52.034;5.554;2024-02-21T12:15:09;9.40;;;4.32;;
19026;SDS011;9646;52.034;5.554;2024-02-21T12:17:39;6.93;;;4.32;;
19026;SDS011;9646;52.034;5.554;2024-02-21T12:20:07;8.30;;;4.43;;
19026;SDS011;9646;52.034;5.554;2024-02-21T12:22:36;8.30;;;4.60;;
19026;SDS011;9646;52.034;5.554;2024-02-21T12:25:03;7.35;;;4.13;;
19026;SDS011;9646;52.034;5.554;2024-02-21T12:27:32;7.30;;;4.53;;
19026;SDS011;9646;52.034;5.554;2024-02-21T12:29:59;10.43;;;4.72;;
19026;SDS011;9646;52.034;5.554;2024-02-21T12:32:31;8.50;;;4.47;;
19026;SDS011;9646;52.034;5.554;2024-02-21T12:34:59;6.45;;;4.20;;
19026;SDS011;9646;52.034;5.554;2024-02-21T12:37:27;10.07;;;4.50;;
19026;SDS011;9646;52.034;5.554;2024-02-21T12:39:55;8.73;;;4.28;;
19026;SDS011;9646;52.034;5.554;2024-02-21T12:42:22;10.00;;;4.57;;
19026;SDS011;9646;52.034;5.554;2024-02-21T12:44:50;11.20;;;4.30;;
19026;SDS011;9646;52.034;5.554;2024-02-21T12:47:18;8.77;;;4.10;;
19026;SDS011;9646;52.034;5.554;2024-02-21T12:49:48;8.82;;;3.97;;
19026;SDS011;9646;52.034;5.554;2024-02-21T12:52:17;8.20;;;3.92;;
19026;SDS011;9646;52.034;5.554;2024-02-21T12:54:44;7.97;;;4.55;;
19026;SDS011;9646;52.034;5.554;2024-02-21T12:57:13;7.43;;;4.05;;
19026;SDS011;9646;52.034;5.554;2024-02-21T12:59:40;7.53;;;4.35;;
19026;SDS011;9646;52.034;5.554;2024-02-21T13:02:08;6.82;;;3.35;;
19026;SDS011;9646;52.034;5.554;2024-02-21T13:04:35;11.70;;;4.18;;
19026;SDS011;9646;52.034;5.554;2024-02-21T13:07:05;8.88;;;4.00;;
19026;SDS011;9646;52.034;5.554;2024-02-21T13:09:34;13.73;;;4.63;;
19026;SDS011;9646;52.034;5.554;2024-02-21T13:12:01;7.80;;;3.42;;
19026;SDS011;9646;52.034;5.554;2024-02-21T13:14:29;8.23;;;3.72;;
19026;SDS011;9646;52.034;5.554;2024-02-21T13:16:58;7.00;;;3.70;;
19026;SDS011;9646;52.034;5.554;2024-02-21T13:19:25;5.43;;;2.90;;
19026;SDS011;9646;52.034;5.554;2024-02-21T13:21:52;8.65;;;3.60;;
19026;SDS011;9646;52.034;5.554;2024-02-21T13:24:19;8.25;;;3.40;;
19026;SDS011;9646;52.034;5.554;2024-02-21T13:26:48;10.57;;;4.00;;
19026;SDS011;9646;52.034;5.554;2024-02-21T13:29:15;6.03;;;3.70;;
19026;SDS011;9646;52.034;5.554;2024-02-21T13:31:43;7.55;;;3.85;;
19026;SDS011;9646;52.034;5.554;2024-02-21T13:34:11;7.88;;;4.15;;
19026;SDS011;9646;52.034;5.554;2024-02-21T13:36:38;6.55;;;3.50;;
19026;SDS011;9646;52.034;5.554;2024-02-21T13:39:05;7.68;;;4.10;;
19026;SDS011;9646;52.034;5.554;2024-02-21T13:41:33;10.52;;;4.10;;
19026;SDS011;9646;52.034;5.554;2024-02-21T13:44:02;7.75;;;4.22;;
19026;SDS011;9646;52.034;5.554;2024-02-21T13:46:29;5.95;;;3.58;;
19026;SDS011;9646;52.034;5.554;2024-02-21T13:49:02;9.18;;;3.75;;
19026;SDS011;9646;52.034;5.554;2024-02-21T13:51:31;6.95;;;3.22;;
19026;SDS011;9646;52.034;5.554;2024-02-21T13:53:58;7.90;;;3.83;;
19026;SDS011;9646;52.034;5.554;2024-02-21T13:56:26;6.60;;;3.47;;
19026;SDS011;9646;52.034;5.554;2024-02-21T13:58:53;6.75;;;3.80;;
19026;SDS011;9646;52.034;5.554;2024-02-21T14:01:21;10.15;;;4.03;;
19026;SDS011;9646;52.034;5.554;2024-02-21T14:03:48;7.07;;;3.65;;
19026;SDS011;9646;52.034;5.554;2024-02-21T14:06:16;7.78;;;3.67;;
19026;SDS011;9646;52.034;5.554;2024-02-21T14:08:43;8.18;;;3.33;;
19026;SDS011;9646;52.034;5.554;2024-02-21T14:11:11;9.05;;;3.95;;
19026;SDS011;9646;52.034;5.554;2024-02-21T14:13:41;9.15;;;3.70;;
19026;SDS011;9646;52.034;5.554;2024-02-21T14:16:09;12.35;;;4.00;;
19026;SDS011;9646;52.034;5.554;2024-02-21T14:18:39;9.75;;;3.00;;
19026;SDS011;9646;52.034;5.554;2024-02-21T14:21:07;7.05;;;3.67;;
19026;SDS011;9646;52.034;5.554;2024-02-21T14:23:36;8.45;;;3.45;;
19026;SDS011;9646;52.034;5.554;2024-02-21T14:26:03;8.73;;;3.33;;
19026;SDS011;9646;52.034;5.554;2024-02-21T14:28:31;7.55;;;2.92;;
19026;SDS011;9646;52.034;5.554;2024-02-21T14:31:01;6.95;;;3.28;;
19026;SDS011;9646;52.034;5.554;2024-02-21T14:33:30;11.35;;;3.28;;
19026;SDS011;9646;52.034;5.554;2024-02-21T14:35:59;6.50;;;2.97;;
19026;SDS011;9646;52.034;5.554;2024-02-21T14:38:27;6.95;;;3.40;;
19026;SDS011;9646;52.034;5.554;2024-02-21T14:40:54;7.57;;;3.15;;
19026;SDS011;9646;52.034;5.554;2024-02-21T14:43:21;5.38;;;3.08;;
19026;SDS011;9646;52.034;5.554;2024-02-21T14:45:49;6.07;;;2.47;;
19026;SDS011;9646;52.034;5.554;2024-02-21T14:48:16;7.40;;;2.70;;
19026;SDS011;9646;52.034;5.554;2024-02-21T14:50:43;9.25;;;3.45;;
19026;SDS011;9646;52.034;5.554;2024-02-21T14:53:11;8.73;;;2.78;;
19026;SDS011;9646;52.034;5.554;2024-02-21T14:55:39;3.60;;;2.30;;
19026;SDS011;9646;52.034;5.554;2024-02-21T14:58:06;4.90;;;2.83;;
19026;SDS011;9646;52.034;5.554;2024-02-21T15:00:36;7.10;;;2.75;;
19026;SDS011;9646;52.034;5.554;2024-02-21T15:03:04;9.10;;;2.70;;